sensor_id;sensor_type;location;lat;lon;timestamp;pressure;altitude;pressure_sealevel;temperature;humidity
23363;BME280;11853;48.080;11.960;2022-11-14T00:02:12;94824.78;;;5.22;100.00
23363;BME280;11853;48.080;11.960;2022-11-14T00:04:38;94826.34;;;5.24;100.00
23363;BME280;11853;48.080;11.960;2022-11-14T00:07:04;94823.56;;;5.26;100.00
23363;BME280;11853;48.080;11.960;2022-11-14T00:09:30;94821.91;;;5.13;100.00
23363;BME280;11853;48.080;11.960;2022-11-14T00:11:56;94820.69;;;5.17;100.00
23363;BME280;11853;48.080;11.960;2022-11-14T00:14:24;94834.47;;;4.99;100.00
23363;BME280;11853;48.080;11.960;2022-11-14T00:16:50;94830.53;;;5.04;100.00
23363;BME280;11853;48.080;11.960;2022-11-14T00:19:15;94831.22;;;5.06;99.95
23363;BME280;11853;48.080;11.960;2022-11-14T00:21:41;94832.44;;;5.02;99.87
23363;BME280;11853;48.080;11.960;2022-11-14T00:24:06;94832.44;;;5.02;99.00
23363;BME280;11853;48.080;11.960;2022-11-14T00:26:32;94835.16;;;5.01;99.65
23363;BME280;11853;48.080;11.960;2022-11-14T00:28:58;94827.66;;;4.96;98.81
23363;BME280;11853;48.080;11.960;2022-11-14T00:31:24;94827.75;;;4.83;99.12
23363;BME280;11853;48.080;11.960;2022-11-14T00:33:50;94824.19;;;4.84;99.58
23363;BME280;11853;48.080;11.960;2022-11-14T00:36:15;94826.19;;;4.81;99.79
23363;BME280;11853;48.080;11.960;2022-11-14T00:38:41;94833.38;;;4.79;99.21
23363;BME280;11853;48.080;11.960;2022-11-14T00:41:06;94837.56;;;4.70;99.81
23363;BME280;11853;48.080;11.960;2022-11-14T00:43:32;94833.59;;;4.53;100.00
23363;BME280;11853;48.080;11.960;2022-11-14T00:45:58;94835.47;;;4.51;100.00
23363;BME280;11853;48.080;11.960;2022-11-14T00:48:23;94836.22;;;4.53;100.00
23363;BME280;11853;48.080;11.960;2022-11-14T00:50:49;94838.59;;;4.56;99.13
23363;BME280;11853;48.080;11.960;2022-11-14T00:53:14;94834.06;;;4.58;99.36
23363;BME280;11853;48.080;11.960;2022-11-14T00:55:41;94833.13;;;4.70;98.75
23363;BME280;11853;48.080;11.960;2022-11-14T00:58:07;94826.53;;;4.54;97.47
23363;BME280;11853;48.080;11.960;2022-11-14T01:00:33;94835.97;;;4.56;99.11
23363;BME280;11853;48.080;11.960;2022-11-14T01:02:58;94823.34;;;4.61;98.41
23363;BME280;11853;48.080;11.960;2022-11-14T01:05:24;94823.66;;;4.45;98.65
23363;BME280;11853;48.080;11.960;2022-11-14T01:07:51;94829.47;;;4.26;99.56
23363;BME280;11853;48.080;11.960;2022-11-14T01:10:17;94830.66;;;4.34;99.39
23363;BME280;11853;48.080;11.960;2022-11-14T01:12:43;94823.06;;;4.42;99.54
23363;BME280;11853;48.080;11.960;2022-11-14T01:15:09;94815.66;;;4.47;98.68
23363;BME280;11853;48.080;11.960;2022-11-14T01:17:35;94816.59;;;4.46;98.50
23363;BME280;11853;48.080;11.960;2022-11-14T01:20:01;94815.19;;;4.42;99.39
23363;BME280;11853;48.080;11.960;2022-11-14T01:22:28;94801.91;;;4.43;99.63
23363;BME280;11853;48.080;11.960;2022-11-14T01:24:54;94797.25;;;4.36;100.00
23363;BME280;11853;48.080;11.960;2022-11-14T01:27:23;94792.84;;;4.36;100.00
23363;BME280;11853;48.080;11.960;2022-11-14T01:29:48;94796.44;;;4.35;100.00
23363;BME280;11853;48.080;11.960;2022-11-14T01:32:14;94787.81;;;4.33;100.00
23363;BME280;11853;48.080;11.960;2022-11-14T01:34:40;94781.88;;;4.42;100.00
23363;BME280;11853;48.080;11.960;2022-11-14T01:37:05;94774.00;;;4.54;100.00
23363;BME280;11853;48.080;11.960;2022-11-14T01:39:31;94779.16;;;4.55;100.00
23363;BME280;11853;48.080;11.960;2022-11-14T01:41:57;94783.19;;;4.59;100.00
23363;BME280;11853;48.080;11.960;2022-11-14T01:47:10;94801.47;;;4.49;100.00
23363;BME280;11853;48.080;11.960;2022-11-14T01:49:39;94819.44;;;4.32;100.00
23363;BME280;11853;48.080;11.960;2022-11-14T01:52:09;94817.41;;;4.24;100.00
23363;BME280;11853;48.080;11.960;2022-11-14T01:54:39;94828.25;;;4.19;100.00
23363;BME280;11853;48.080;11.960;2022-11-14T01:57:06;94821.47;;;4.28;100.00
23363;BME280;11853;48.080;11.960;2022-11-14T01:59:37;94832.09;;;4.38;100.00
23363;BME280;11853;48.080;11.960;2022-11-14T02:02:15;94835.84;;;4.46;100.00
23363;BME280;11853;48.080;11.960;2022-11-14T02:04:44;94819.22;;;4.46;100.00
23363;BME280;11853;48.080;11.960;2022-11-14T02:07:12;94814.94;;;4.45;100.00
23363;BME280;11853;48.080;11.960;2022-11-14T02:09:43;94808.97;;;4.43;100.00
23363;BME280;11853;48.080;11.960;2022-11-14T02:12:13;94800.16;;;4.44;100.00
23363;BME280;11853;48.080;11.960;2022-11-14T02:14:42;94793.81;;;4.46;100.00
23363;BME280;11853;48.080;11.960;2022-11-14T02:17:10;94782.69;;;4.43;100.00
23363;BME280;11853;48.080;11.960;2022-11-14T02:20:19;94782.47;;;4.46;100.00
23363;BME280;11853;48.080;11.960;2022-11-14T02:22:44;94776.03;;;4.50;100.00
23363;BME280;11853;48.080;11.960;2022-11-14T02:25:12;94774.81;;;4.54;100.00
23363;BME280;11853;48.080;11.960;2022-11-14T02:27:40;94770.19;;;4.46;100.00
23363;BME280;11853;48.080;11.960;2022-11-14T02:30:09;94763.00;;;4.48;99.65
23363;BME280;11853;48.080;11.960;2022-11-14T02:32:35;94761.22;;;4.49;99.50
23363;BME280;11853;48.080;11.960;2022-11-14T02:35:01;94757.50;;;4.40;100.00
23363;BME280;11853;48.080;11.960;2022-11-14T02:37:26;94750.09;;;4.34;100.00
23363;BME280;11853;48.080;11.960;2022-11-14T02:39:52;94740.81;;;4.41;100.00
23363;BME280;11853;48.080;11.960;2022-11-14T02:42:17;94740.91;;;4.40;100.00
23363;BME280;11853;48.080;11.960;2022-11-14T02:44:43;94750.47;;;4.29;100.00
23363;BME280;11853;48.080;11.960;2022-11-14T02:47:09;94751.28;;;4.30;100.00
23363;BME280;11853;48.080;11.960;2022-11-14T02:49:34;94750.94;;;4.35;100.00
23363;BME280;11853;48.080;11.960;2022-11-14T02:52:00;94755.59;;;4.31;100.00
23363;BME280;11853;48.080;11.960;2022-11-14T02:54:25;94743.03;;;4.23;100.00
23363;BME280;11853;48.080;11.960;2022-11-14T02:56:51;94751.53;;;4.27;100.00
23363;BME280;11853;48.080;11.960;2022-11-14T02:59:16;94755.97;;;4.26;100.00
23363;BME280;11853;48.080;11.960;2022-11-14T03:01:42;94761.44;;;4.35;100.00
23363;BME280;11853;48.080;11.960;2022-11-14T03:04:07;94757.63;;;4.39;100.00
23363;BME280;11853;48.080;11.960;2022-11-14T03:06:33;94759.88;;;4.43;100.00
23363;BME280;11853;48.080;11.960;2022-11-14T03:08:59;94759.78;;;4.45;100.00
23363;BME280;11853;48.080;11.960;2022-11-14T03:11:24;94768.50;;;4.45;100.00
23363;BME280;11853;48.080;11.960;2022-11-14T03:13:50;94774.47;;;4.47;100.00
23363;BME280;11853;48.080;11.960;2022-11-14T03:16:16;94755.97;;;4.49;100.00
23363;BME280;11853;48.080;11.960;2022-11-14T03:18:41;94763.25;;;4.45;100.00
23363;BME280;11853;48.080;11.960;2022-11-14T03:21:11;94760.03;;;4.42;100.00
23363;BME280;11853;48.080;11.960;2022-11-14T03:23:38;94761.81;;;4.41;100.00
23363;BME280;11853;48.080;11.960;2022-11-14T03:26:07;94771.00;;;4.36;100.00
23363;BME280;11853;48.080;11.960;2022-11-14T03:28:34;94765.25;;;4.31;100.00
23363;BME280;11853;48.080;11.960;2022-11-14T03:30:59;94764.28;;;4.32;100.00
23363;BME280;11853;48.080;11.960;2022-11-14T03:33:25;94772.16;;;4.32;100.00
23363;BME280;11853;48.080;11.960;2022-11-14T03:35:51;94773.63;;;4.36;100.00
23363;BME280;11853;48.080;11.960;2022-11-14T03:38:18;94773.72;;;4.34;100.00
23363;BME280;11853;48.080;11.960;2022-11-14T03:40:44;94784.13;;;4.36;100.00
23363;BME280;11853;48.080;11.960;2022-11-14T03:43:10;94779.72;;;4.36;100.00
23363;BME280;11853;48.080;11.960;2022-11-14T03:45:36;94770.75;;;4.39;100.00
23363;BME280;11853;48.080;11.960;2022-11-14T03:48:02;94769.69;;;4.41;100.00
23363;BME280;11853;48.080;11.960;2022-11-14T03:50:28;94777.44;;;4.43;100.00
23363;BME280;11853;48.080;11.960;2022-11-14T03:52:53;94780.78;;;4.45;100.00
23363;BME280;11853;48.080;11.960;2022-11-14T03:55:19;94778.16;;;4.45;100.00
23363;BME280;11853;48.080;11.960;2022-11-14T03:57:45;94768.50;;;4.45;100.00
23363;BME280;11853;48.080;11.960;2022-11-14T04:00:11;94768.63;;;4.44;100.00
23363;BME280;11853;48.080;11.960;2022-11-14T04:02:36;94763.97;;;4.47;100.00
23363;BME280;11853;48.080;11.960;2022-11-14T04:05:02;94772.09;;;4.44;100.00
23363;BME280;11853;48.080;11.960;2022-11-14T04:07:28;94759.78;;;4.45;100.00
23363;BME280;11853;48.080;11.960;2022-11-14T04:09:53;94766.47;;;4.49;100.00
23363;BME280;11853;48.080;11.960;2022-11-14T04:12:19;94763.84;;;4.49;100.00
23363;BME280;11853;48.080;11.960;2022-11-14T04:14:44;94774.09;;;4.52;100.00
23363;BME280;11853;48.080;11.960;2022-11-14T04:17:10;94771.47;;;4.52;100.00
23363;BME280;11853;48.080;11.960;2022-11-14T04:19:36;94757.66;;;4.50;100.00
23363;BME280;11853;48.080;11.960;2022-11-14T04:22:01;94759.06;;;4.54;100.00
23363;BME280;11853;48.080;11.960;2022-11-14T04:24:27;94749.41;;;4.55;100.00
23363;BME280;11853;48.080;11.960;2022-11-14T04:26:53;94750.84;;;4.47;100.00
23363;BME280;11853;48.080;11.960;2022-11-14T04:29:18;94755.25;;;4.47;100.00
23363;BME280;11853;48.080;11.960;2022-11-14T04:31:44;94762.16;;;4.37;100.00
23363;BME280;11853;48.080;11.960;2022-11-14T04:34:09;94754.88;;;4.40;100.00
23363;BME280;11853;48.080;11.960;2022-11-14T04:36:35;94750.69;;;4.38;100.00
23363;BME280;11853;48.080;11.960;2022-11-14T04:39:00;94748.69;;;4.41;100.00
23363;BME280;11853;48.080;11.960;2022-11-14T04:41:26;94744.38;;;4.40;100.00
23363;BME280;11853;48.080;11.960;2022-11-14T04:43:51;94752.16;;;4.42;100.00
23363;BME280;11853;48.080;11.960;2022-11-14T04:46:17;94752.88;;;4.44;100.00
23363;BME280;11853;48.080;11.960;2022-11-14T04:48:43;94753.56;;;4.35;100.00
23363;BME280;11853;48.080;11.960;2022-11-14T04:51:08;94757.97;;;4.34;100.00
23363;BME280;11853;48.080;11.960;2022-11-14T04:53:34;94758.44;;;4.28;100.00
23363;BME280;11853;48.080;11.960;2022-11-14T04:55:59;94757.13;;;4.34;100.00
23363;BME280;11853;48.080;11.960;2022-11-14T04:58:25;94759.91;;;4.32;100.00
23363;BME280;11853;48.080;11.960;2022-11-14T05:00:51;94749.25;;;4.34;100.00
23363;BME280;11853;48.080;11.960;2022-11-14T05:03:17;94753.78;;;4.32;100.00
23363;BME280;11853;48.080;11.960;2022-11-14T05:05:42;94749.97;;;4.24;100.00
23363;BME280;11853;48.080;11.960;2022-11-14T05:08:08;94749.00;;;4.25;100.00
23363;BME280;11853;48.080;11.960;2022-11-14T05:10:33;94747.13;;;4.27;100.00
23363;BME280;11853;48.080;11.960;2022-11-14T05:12:59;94735.78;;;4.27;100.00
23363;BME280;11853;48.080;11.960;2022-11-14T05:15:25;94725.50;;;4.24;100.00
23363;BME280;11853;48.080;11.960;2022-11-14T05:17:50;94721.09;;;4.24;100.00
23363;BME280;11853;48.080;11.960;2022-11-14T05:20:16;94730.13;;;4.20;100.00
23363;BME280;11853;48.080;11.960;2022-11-14T05:22:42;94737.78;;;4.23;100.00
23363;BME280;11853;48.080;11.960;2022-11-14T05:25:08;94747.13;;;4.27;100.00
23363;BME280;11853;48.080;11.960;2022-11-14T05:27:33;94755.81;;;4.28;100.00
23363;BME280;11853;48.080;11.960;2022-11-14T05:29:59;94757.63;;;4.27;100.00
23363;BME280;11853;48.080;11.960;2022-11-14T05:32:25;94761.91;;;4.28;100.00
23363;BME280;11853;48.080;11.960;2022-11-14T05:34:50;94761.44;;;4.35;100.00
23363;BME280;11853;48.080;11.960;2022-11-14T05:37:16;94766.59;;;4.36;100.00
23363;BME280;11853;48.080;11.960;2022-11-14T05:39:41;94780.44;;;4.38;100.00
23363;BME280;11853;48.080;11.960;2022-11-14T05:42:07;94783.16;;;4.37;100.00
23363;BME280;11853;48.080;11.960;2022-11-14T05:44:32;94778.66;;;4.39;100.00
23363;BME280;11853;48.080;11.960;2022-11-14T05:46:58;94773.72;;;4.34;100.00
23363;BME280;11853;48.080;11.960;2022-11-14T05:49:23;94783.06;;;4.38;100.00
23363;BME280;11853;48.080;11.960;2022-11-14T05:51:49;94783.75;;;4.40;100.00
23363;BME280;11853;48.080;11.960;2022-11-14T05:54:15;94784.63;;;4.41;100.00
23363;BME280;11853;48.080;11.960;2022-11-14T05:56:40;94785.78;;;4.37;100.00
23363;BME280;11853;48.080;11.960;2022-11-14T05:59:06;94783.16;;;4.37;100.00
23363;BME280;11853;48.080;11.960;2022-11-14T06:01:31;94795.13;;;4.41;100.00
23363;BME280;11853;48.080;11.960;2022-11-14T06:03:57;94793.81;;;4.46;100.00
23363;BME280;11853;48.080;11.960;2022-11-14T06:06:22;94796.09;;;4.51;100.00
23363;BME280;11853;48.080;11.960;2022-11-14T06:08:48;94802.41;;;4.60;100.00
23363;BME280;11853;48.080;11.960;2022-11-14T06:11:16;94814.00;;;4.68;100.00
23363;BME280;11853;48.080;11.960;2022-11-14T06:13:42;94819.84;;;4.72;100.00
23363;BME280;11853;48.080;11.960;2022-11-14T06:16:10;94816.28;;;4.73;100.00
23363;BME280;11853;48.080;11.960;2022-11-14T06:18:36;94819.50;;;4.77;100.00
23363;BME280;11853;48.080;11.960;2022-11-14T06:21:09;94811.63;;;4.77;100.00
23363;BME280;11853;48.080;11.960;2022-11-14T06:23:35;94818.56;;;4.78;100.00
23363;BME280;11853;48.080;11.960;2022-11-14T06:26:03;94805.53;;;4.76;100.00
23363;BME280;11853;48.080;11.960;2022-11-14T06:28:30;94807.81;;;4.81;100.00
23363;BME280;11853;48.080;11.960;2022-11-14T06:30:59;94806.72;;;4.83;100.00
23363;BME280;11853;48.080;11.960;2022-11-14T06:33:26;94808.91;;;4.89;100.00
23363;BME280;11853;48.080;11.960;2022-11-14T06:36:03;94811.66;;;4.99;100.00
23363;BME280;11853;48.080;11.960;2022-11-14T06:38:30;94811.75;;;5.09;100.00
23363;BME280;11853;48.080;11.960;2022-11-14T06:41:08;94811.16;;;5.16;100.00
23363;BME280;11853;48.080;11.960;2022-11-14T06:43:35;94809.25;;;5.30;100.00
23363;BME280;11853;48.080;11.960;2022-11-14T06:46:01;94804.28;;;5.48;100.00
23363;BME280;11853;48.080;11.960;2022-11-14T06:48:27;94813.81;;;5.60;100.00
23363;BME280;11853;48.080;11.960;2022-11-14T06:50:54;94812.53;;;5.54;100.00
23363;BME280;11853;48.080;11.960;2022-11-14T06:53:21;94802.00;;;5.54;100.00
23363;BME280;11853;48.080;11.960;2022-11-14T06:58:26;94810.41;;;5.37;100.00
23363;BME280;11853;48.080;11.960;2022-11-14T07:00:52;94800.03;;;5.35;100.00
23363;BME280;11853;48.080;11.960;2022-11-14T07:03:18;94818.78;;;5.31;100.00
23363;BME280;11853;48.080;11.960;2022-11-14T07:05:44;94817.72;;;5.22;100.00
23363;BME280;11853;48.080;11.960;2022-11-14T07:08:09;94816.66;;;5.25;100.00
23363;BME280;11853;48.080;11.960;2022-11-14T07:10:35;94819.75;;;5.30;100.00
23363;BME280;11853;48.080;11.960;2022-11-14T07:13:01;94814.00;;;5.36;100.00
23363;BME280;11853;48.080;11.960;2022-11-14T07:15:26;94827.16;;;5.36;100.00
23363;BME280;11853;48.080;11.960;2022-11-14T07:17:52;94820.91;;;5.48;100.00
23363;BME280;11853;48.080;11.960;2022-11-14T07:20:18;94810.47;;;5.58;100.00
23363;BME280;11853;48.080;11.960;2022-11-14T07:22:46;94807.81;;;5.69;100.00
23363;BME280;11853;48.080;11.960;2022-11-14T07:25:12;94804.94;;;5.72;100.00
23363;BME280;11853;48.080;11.960;2022-11-14T07:27:38;94811.72;;;5.86;100.00
23363;BME280;11853;48.080;11.960;2022-11-14T07:30:04;94814.09;;;6.00;100.00
23363;BME280;11853;48.080;11.960;2022-11-14T07:32:30;94818.38;;;6.13;100.00
23363;BME280;11853;48.080;11.960;2022-11-14T07:34:56;94823.75;;;6.32;100.00
23363;BME280;11853;48.080;11.960;2022-11-14T07:37:21;94812.41;;;6.52;100.00
23363;BME280;11853;48.080;11.960;2022-11-14T07:39:47;94806.59;;;6.80;100.00
23363;BME280;11853;48.080;11.960;2022-11-14T07:42:12;94809.09;;;7.12;98.84
23363;BME280;11853;48.080;11.960;2022-11-14T07:44:38;94795.69;;;7.34;96.38
23363;BME280;11853;48.080;11.960;2022-11-14T07:47:04;94809.41;;;7.68;94.72
23363;BME280;11853;48.080;11.960;2022-11-14T07:49:29;94805.13;;;7.97;94.24
23363;BME280;11853;48.080;11.960;2022-11-14T07:51:55;94802.91;;;8.31;92.76
23363;BME280;11853;48.080;11.960;2022-11-14T07:54:20;94804.97;;;8.66;90.79
23363;BME280;11853;48.080;11.960;2022-11-14T07:56:46;94798.19;;;9.01;88.85
23363;BME280;11853;48.080;11.960;2022-11-14T07:59:12;94794.72;;;9.38;87.82
23363;BME280;11853;48.080;11.960;2022-11-14T08:01:37;94795.63;;;9.74;86.50
23363;BME280;11853;48.080;11.960;2022-11-14T08:04:03;94791.19;;;9.92;82.10
23363;BME280;11853;48.080;11.960;2022-11-14T08:06:28;94795.25;;;9.87;82.92
23363;BME280;11853;48.080;11.960;2022-11-14T08:08:54;94799.34;;;9.81;85.23
23363;BME280;11853;48.080;11.960;2022-11-14T08:11:20;94789.75;;;9.80;84.68
23363;BME280;11853;48.080;11.960;2022-11-14T08:14:06;94794.41;;;9.68;83.42
23363;BME280;11853;48.080;11.960;2022-11-14T08:16:32;94790.13;;;9.40;84.30
23363;BME280;11853;48.080;11.960;2022-11-14T08:18:57;94797.91;;;9.14;84.55
23363;BME280;11853;48.080;11.960;2022-11-14T08:21:23;94787.50;;;9.02;85.17
23363;BME280;11853;48.080;11.960;2022-11-14T08:23:49;94794.78;;;9.18;83.01
23363;BME280;11853;48.080;11.960;2022-11-14T08:26:14;94776.97;;;9.20;83.13
23363;BME280;11853;48.080;11.960;2022-11-14T08:28:40;94769.44;;;9.25;84.46
23363;BME280;11853;48.080;11.960;2022-11-14T08:31:06;94765.31;;;9.13;83.79
23363;BME280;11853;48.080;11.960;2022-11-14T08:33:32;94764.66;;;9.29;83.84
23363;BME280;11853;48.080;11.960;2022-11-14T08:36:01;94757.41;;;9.59;80.96
23363;BME280;11853;48.080;11.960;2022-11-14T08:38:27;94753.78;;;9.96;81.44
23363;BME280;11853;48.080;11.960;2022-11-14T08:40:57;94758.25;;;10.49;82.60
23363;BME280;11853;48.080;11.960;2022-11-14T08:43:23;94757.28;;;11.02;81.45
23363;BME280;11853;48.080;11.960;2022-11-14T08:45:50;94762.63;;;11.53;80.50
23363;BME280;11853;48.080;11.960;2022-11-14T08:48:15;94758.66;;;11.99;77.97
23363;BME280;11853;48.080;11.960;2022-11-14T08:50:41;94751.88;;;12.54;73.87
23363;BME280;11853;48.080;11.960;2022-11-14T08:53:07;94755.78;;;13.07;74.77
23363;BME280;11853;48.080;11.960;2022-11-14T08:55:33;94747.38;;;13.43;71.18
23363;BME280;11853;48.080;11.960;2022-11-14T08:57:59;94753.94;;;13.63;67.89
23363;BME280;11853;48.080;11.960;2022-11-14T09:00:24;94740.28;;;14.20;68.76
23363;BME280;11853;48.080;11.960;2022-11-14T09:02:50;94750.50;;;14.63;64.92
23363;BME280;11853;48.080;11.960;2022-11-14T09:05:16;94744.16;;;14.79;64.45
23363;BME280;11853;48.080;11.960;2022-11-14T09:07:42;94739.88;;;15.07;61.79
23363;BME280;11853;48.080;11.960;2022-11-14T09:10:08;94738.47;;;14.82;62.04
23363;BME280;11853;48.080;11.960;2022-11-14T09:12:34;94733.63;;;15.00;63.89
23363;BME280;11853;48.080;11.960;2022-11-14T09:14:59;94740.06;;;15.21;63.79
23363;BME280;11853;48.080;11.960;2022-11-14T09:17:25;94735.28;;;15.46;64.53
23363;BME280;11853;48.080;11.960;2022-11-14T09:19:51;94746.91;;;15.83;63.64
23363;BME280;11853;48.080;11.960;2022-11-14T09:22:17;94743.03;;;16.07;63.85
23363;BME280;11853;48.080;11.960;2022-11-14T09:24:43;94751.13;;;16.28;64.31
23363;BME280;11853;48.080;11.960;2022-11-14T09:27:12;94750.03;;;16.44;62.04
23363;BME280;11853;48.080;11.960;2022-11-14T09:29:38;94736.63;;;16.65;63.89
23363;BME280;11853;48.080;11.960;2022-11-14T09:32:03;94747.69;;;17.05;63.19
23363;BME280;11853;48.080;11.960;2022-11-14T09:34:29;94756.94;;;17.31;61.45
23363;BME280;11853;48.080;11.960;2022-11-14T09:36:55;94754.44;;;17.29;63.72
23363;BME280;11853;48.080;11.960;2022-11-14T09:39:21;94755.03;;;17.60;62.21
23363;BME280;11853;48.080;11.960;2022-11-14T09:44:58;94760.19;;;17.89;59.29
23363;BME280;11853;48.080;11.960;2022-11-14T09:47:35;94738.47;;;17.91;60.93
23363;BME280;11853;48.080;11.960;2022-11-14T09:50:13;94757.91;;;17.93;58.75
23363;BME280;11853;48.080;11.960;2022-11-14T09:52:41;94764.34;;;18.05;60.62
23363;BME280;11853;48.080;11.960;2022-11-14T09:55:18;94748.28;;;18.12;59.80
23363;BME280;11853;48.080;11.960;2022-11-14T09:57:46;94745.44;;;18.33;60.01
23363;BME280;11853;48.080;11.960;2022-11-14T10:00:17;94751.66;;;18.47;59.80
23363;BME280;11853;48.080;11.960;2022-11-14T10:08:50;94756.28;;;19.33;57.71
23363;BME280;11853;48.080;11.960;2022-11-14T10:17:19;94738.41;;;19.58;55.64
23363;BME280;11853;48.080;11.960;2022-11-14T10:22:56;94742.06;;;19.97;53.57
23363;BME280;11853;48.080;11.960;2022-11-14T10:25:27;94741.13;;;20.23;54.02
23363;BME280;11853;48.080;11.960;2022-11-14T10:33:32;94754.94;;;20.34;49.40
23363;BME280;11853;48.080;11.960;2022-11-14T10:42:12;94749.44;;;20.15;47.76
23363;BME280;11853;48.080;11.960;2022-11-14T10:45:25;94766.81;;;20.26;49.34
23363;BME280;11853;48.080;11.960;2022-11-14T10:47:25;94755.91;;;20.46;51.23
23363;BME280;11853;48.080;11.960;2022-11-14T10:49:57;94760.16;;;20.67;50.97
23363;BME280;11853;48.080;11.960;2022-11-14T10:52:35;94760.44;;;20.59;49.23
23363;BME280;11853;48.080;11.960;2022-11-14T10:55:07;94754.19;;;20.52;47.64
23363;BME280;11853;48.080;11.960;2022-11-14T10:57:39;94755.91;;;20.53;49.08
23363;BME280;11853;48.080;11.960;2022-11-14T11:00:18;94764.59;;;20.48;49.09
23363;BME280;11853;48.080;11.960;2022-11-14T11:02:58;94755.19;;;20.25;46.96
23363;BME280;11853;48.080;11.960;2022-11-14T11:05:28;94751.56;;;20.00;45.95
23363;BME280;11853;48.080;11.960;2022-11-14T11:07:57;94760.16;;;19.70;48.42
23363;BME280;11853;48.080;11.960;2022-11-14T11:10:44;94763.13;;;19.29;50.23
23363;BME280;11853;48.080;11.960;2022-11-14T11:13:39;94769.53;;;18.75;51.22
23363;BME280;11853;48.080;11.960;2022-11-14T11:16:10;94763.41;;;18.33;52.43
23363;BME280;11853;48.080;11.960;2022-11-14T11:18:36;94771.34;;;17.93;52.76
23363;BME280;11853;48.080;11.960;2022-11-14T11:21:10;94764.81;;;17.74;54.52
23363;BME280;11853;48.080;11.960;2022-11-14T11:23:53;94767.34;;;17.47;55.27
23363;BME280;11853;48.080;11.960;2022-11-14T11:26:30;94773.38;;;17.21;55.98
23363;BME280;11853;48.080;11.960;2022-11-14T11:29:05;94772.41;;;17.01;56.58
23363;BME280;11853;48.080;11.960;2022-11-14T11:31:59;94776.94;;;16.79;58.20
23363;BME280;11853;48.080;11.960;2022-11-14T11:34:31;94770.38;;;16.60;58.53
23363;BME280;11853;48.080;11.960;2022-11-14T11:39:26;94782.72;;;16.39;58.94
23363;BME280;11853;48.080;11.960;2022-11-14T11:41:54;94772.00;;;16.18;60.69
23363;BME280;11853;48.080;11.960;2022-11-14T11:44:28;94767.78;;;16.09;62.38
23363;BME280;11853;48.080;11.960;2022-11-14T11:47:00;94769.63;;;15.93;65.48
23363;BME280;11853;48.080;11.960;2022-11-14T11:49:43;94770.78;;;15.84;66.59
23363;BME280;11853;48.080;11.960;2022-11-14T11:52:56;94763.88;;;15.75;67.81
23363;BME280;11853;48.080;11.960;2022-11-14T11:57:34;94775.31;;;15.54;69.96
23363;BME280;11853;48.080;11.960;2022-11-14T12:00:14;94773.34;;;15.33;72.39
23363;BME280;11853;48.080;11.960;2022-11-14T12:02:41;94779.13;;;15.07;73.63
23363;BME280;11853;48.080;11.960;2022-11-14T12:05:15;94778.69;;;15.03;73.26
23363;BME280;11853;48.080;11.960;2022-11-14T12:07:49;94787.13;;;14.92;73.99
23363;BME280;11853;48.080;11.960;2022-11-14T12:10:23;94780.53;;;14.65;75.32
23363;BME280;11853;48.080;11.960;2022-11-14T12:24:39;94794.91;;;14.02;77.92
23363;BME280;11853;48.080;11.960;2022-11-14T12:30:10;94808.47;;;13.92;78.54
23363;BME280;11853;48.080;11.960;2022-11-14T12:33:02;94804.16;;;13.91;78.33
23363;BME280;11853;48.080;11.960;2022-11-14T12:35:34;94811.03;;;13.85;79.17
23363;BME280;11853;48.080;11.960;2022-11-14T12:38:13;94804.34;;;13.81;79.78
23363;BME280;11853;48.080;11.960;2022-11-14T12:40:47;94809.22;;;13.78;80.67
23363;BME280;11853;48.080;11.960;2022-11-14T12:43:34;94818.28;;;13.60;82.88
23363;BME280;11853;48.080;11.960;2022-11-14T12:46:03;94824.31;;;13.54;83.38
23363;BME280;11853;48.080;11.960;2022-11-14T12:53:53;94837.97;;;13.51;84.57
23363;BME280;11853;48.080;11.960;2022-11-14T13:02:05;94838.00;;;13.43;82.31
23363;BME280;11853;48.080;11.960;2022-11-14T13:12:35;94849.16;;;13.30;78.07
23363;BME280;11853;48.080;11.960;2022-11-14T13:18:18;94850.34;;;13.19;76.38
23363;BME280;11853;48.080;11.960;2022-11-14T13:21:32;94849.31;;;13.12;75.36
23363;BME280;11853;48.080;11.960;2022-11-14T13:24:16;94847.69;;;13.03;75.85
23363;BME280;11853;48.080;11.960;2022-11-14T13:32:10;94842.00;;;12.98;74.96
23363;BME280;11853;48.080;11.960;2022-11-14T13:35:02;94845.00;;;12.95;74.91
23363;BME280;11853;48.080;11.960;2022-11-14T13:40:26;94855.66;;;12.87;74.90
23363;BME280;11853;48.080;11.960;2022-11-14T13:43:28;94842.53;;;12.85;75.89
23363;BME280;11853;48.080;11.960;2022-11-14T13:48:50;94839.53;;;12.72;76.65
23363;BME280;11853;48.080;11.960;2022-11-14T13:51:23;94843.69;;;12.66;77.92
23363;BME280;11853;48.080;11.960;2022-11-14T13:53:50;94848.34;;;12.64;78.39
23363;BME280;11853;48.080;11.960;2022-11-14T13:56:29;94850.66;;;12.67;78.31
23363;BME280;11853;48.080;11.960;2022-11-14T13:59:28;94846.19;;;12.68;78.90
23363;BME280;11853;48.080;11.960;2022-11-14T14:05:23;94851.66;;;12.66;79.41
23363;BME280;11853;48.080;11.960;2022-11-14T14:24:37;94843.97;;;12.38;81.32
23363;BME280;11853;48.080;11.960;2022-11-14T14:30:23;94842.63;;;12.26;82.30
23363;BME280;11853;48.080;11.960;2022-11-14T14:35:35;94848.59;;;12.20;82.32
23363;BME280;11853;48.080;11.960;2022-11-14T14:38:02;94848.94;;;12.17;82.62
23363;BME280;11853;48.080;11.960;2022-11-14T14:40:33;94846.59;;;12.14;83.18
23363;BME280;11853;48.080;11.960;2022-11-14T14:43:01;94843.75;;;12.15;83.66
23363;BME280;11853;48.080;11.960;2022-11-14T14:45:28;94841.94;;;12.08;83.93
23363;BME280;11853;48.080;11.960;2022-11-14T14:48:13;94844.25;;;12.03;84.19
23363;BME280;11853;48.080;11.960;2022-11-14T14:50:50;94846.06;;;12.02;83.70
23363;BME280;11853;48.080;11.960;2022-11-14T14:53:20;94853.84;;;11.95;84.58
23363;BME280;11853;48.080;11.960;2022-11-14T15:03:23;94847.84;;;11.85;84.03